Bayside, Wisconsin
Current Conditions -  °F | °C
As of 5:45 PM on Saturday 25 Oct 2014 (Local Time) from KMWC Reporting Station
Clear Clear  
Wind Chill: 63°   Ceiling: Unl
Heat Index: 63°   Visibility: 10mi
Dew Point: 19°   Wind: 16mph
Humidity: 19%   Direction: 290°WNW
Pressure: 29.89"   Gusts: 23mph
Location:  43.1576°N, 87.9144°W
Report Text: KMWC 252245Z AUTO 29014G20KT 10SM SKC 17/M07 A2989
Loading
Personal Weather Stations






























Interactive Weather Map
Tropical Storm Tracking
New forecast layout! Learn more

10-Day Weather Forecast

Advertisements
Track Severe Weather on mobile